createdAt,value
2023-04-22T00:00:19.854Z,31.70
2023-04-22T00:02:49.425Z,33.90
2023-04-22T00:05:20.633Z,28.55
2023-04-22T00:07:50.324Z,31.68
2023-04-22T00:10:19.616Z,35.83
2023-04-22T00:12:48.933Z,25.57
2023-04-22T00:15:20.054Z,27.87
2023-04-22T00:17:50.234Z,29.25
2023-04-22T00:20:22.588Z,28.12
2023-04-22T00:22:52.012Z,27.77
2023-04-22T00:25:21.317Z,33.08
2023-04-22T00:27:50.704Z,34.30
2023-04-22T00:30:20.048Z,35.13
2023-04-22T00:32:50.022Z,38.40
2023-04-22T00:35:19.350Z,37.83
2023-04-22T00:37:48.892Z,35.52
2023-04-22T00:40:18.300Z,31.52
2023-04-22T00:42:48.253Z,25.52
2023-04-22T00:45:18.679Z,27.50
2023-04-22T00:47:49.436Z,33.70
2023-04-22T00:50:18.983Z,39.15
2023-04-22T00:52:48.327Z,42.75
2023-04-22T00:55:17.657Z,50.05
2023-04-22T00:57:47.801Z,58.65
2023-04-22T01:00:17.722Z,59.95
2023-04-22T01:02:48.265Z,49.25
2023-04-22T01:05:18.082Z,54.93
2023-04-22T01:07:47.647Z,58.73
2023-04-22T01:10:17.660Z,60.43
2023-04-22T01:12:46.982Z,58.30
2023-04-22T01:15:16.448Z,54.48
2023-04-22T01:17:46.990Z,51.53
2023-04-22T01:20:16.615Z,90.10
2023-04-22T01:22:46.942Z,82.40
2023-04-22T01:25:16.242Z,80.67
2023-04-22T01:27:45.595Z,76.05
2023-04-22T01:30:15.418Z,81.42
2023-04-22T01:32:45.010Z,78.80
2023-04-22T01:35:14.407Z,82.17
2023-04-22T01:37:44.033Z,65.97
2023-04-22T01:40:14.869Z,61.92
2023-04-22T01:42:44.138Z,57.93
2023-04-22T01:45:13.580Z,49.88
2023-04-22T01:47:43.244Z,47.03
2023-04-22T01:50:12.541Z,43.50
2023-04-22T01:52:42.761Z,42.20
2023-04-22T01:55:12.028Z,43.98
2023-04-22T01:57:41.396Z,40.35
2023-04-22T02:00:11.556Z,40.80
2023-04-22T02:02:45.884Z,43.00
2023-04-22T02:05:16.087Z,35.95
2023-04-22T02:07:47.582Z,38.95
2023-04-22T02:10:18.214Z,36.33
2023-04-22T02:12:48.168Z,38.48
2023-04-22T02:15:17.477Z,40.63
2023-04-22T02:17:46.843Z,38.53
2023-04-22T02:20:16.145Z,38.38
2023-04-22T02:22:46.893Z,37.33
2023-04-22T02:25:16.728Z,33.25
2023-04-22T02:27:46.014Z,36.50
2023-04-22T02:30:16.534Z,31.33
2023-04-22T02:32:46.236Z,31.48
2023-04-22T02:35:15.564Z,34.18
2023-04-22T02:37:45.282Z,30.62
2023-04-22T02:40:14.527Z,33.35
2023-04-22T02:42:43.806Z,31.52
2023-04-22T02:45:13.161Z,31.77
2023-04-22T02:47:44.198Z,33.53
2023-04-22T02:50:13.922Z,37.00
2023-04-22T02:52:43.549Z,31.68
2023-04-22T02:55:13.057Z,32.23
2023-04-22T02:57:42.685Z,33.25
2023-04-22T03:00:12.722Z,30.32
2023-04-22T03:02:42.932Z,29.65
2023-04-22T03:05:14.663Z,34.13
2023-04-22T03:07:44.713Z,34.53
2023-04-22T03:10:14.042Z,40.20
2023-04-22T03:12:44.472Z,42.95
2023-04-22T03:15:14.332Z,43.45
2023-04-22T03:17:43.961Z,41.75
2023-04-22T03:20:15.233Z,44.55
2023-04-22T03:22:44.607Z,43.28
2023-04-22T03:25:14.896Z,42.62
2023-04-22T03:27:45.921Z,41.13
2023-04-22T03:30:15.378Z,38.92
2023-04-22T03:32:44.901Z,41.65
2023-04-22T03:35:16.397Z,44.25
2023-04-22T03:37:47.176Z,43.95
2023-04-22T03:40:18.313Z,42.80
2023-04-22T03:42:47.690Z,44.50
2023-04-22T03:45:19.066Z,41.98
2023-04-22T03:47:50.787Z,42.65
2023-04-22T03:50:22.154Z,43.15
2023-04-22T03:52:52.318Z,40.83
2023-04-22T03:55:23.401Z,41.35
2023-04-22T03:57:53.960Z,40.38
2023-04-22T04:00:23.433Z,39.85
2023-04-22T04:02:54.769Z,39.23
2023-04-22T04:05:26.415Z,42.78
2023-04-22T04:07:56.674Z,41.92
2023-04-22T04:10:27.243Z,43.78
2023-04-22T04:12:58.192Z,42.55
2023-04-22T04:15:27.953Z,42.58
2023-04-22T04:17:57.334Z,40.25
2023-04-22T04:20:27.961Z,40.80
2023-04-22T04:22:57.331Z,41.18
2023-04-22T04:25:27.613Z,42.03
2023-04-22T04:27:56.975Z,40.28
2023-04-22T04:30:26.323Z,39.60
2023-04-22T04:32:57.925Z,41.25
2023-04-22T04:35:28.390Z,40.48
2023-04-22T04:37:59.435Z,40.58
2023-04-22T04:40:31.911Z,40.70
2023-04-22T04:43:13.032Z,40.55
2023-04-22T04:45:48.709Z,40.20
2023-04-22T04:48:20.374Z,40.48
2023-04-22T04:50:53.084Z,40.40
2023-04-22T04:53:23.727Z,39.83
2023-04-22T04:55:53.630Z,39.50
2023-04-22T04:58:24.153Z,38.20
2023-04-22T05:00:55.376Z,39.15
2023-04-22T05:03:26.656Z,38.50
2023-04-22T05:05:56.839Z,40.25
2023-04-22T05:08:26.574Z,38.67
2023-04-22T05:10:57.554Z,40.55
2023-04-22T05:13:27.650Z,38.88
2023-04-22T05:15:57.722Z,39.58
2023-04-22T05:18:27.326Z,39.55
2023-04-22T05:20:58.802Z,39.08
2023-04-22T05:23:30.819Z,38.10
2023-04-22T05:26:00.812Z,38.78
2023-04-22T05:28:31.585Z,38.67
2023-04-22T05:31:00.996Z,39.67
2023-04-22T05:33:31.343Z,40.88
2023-04-22T05:36:00.891Z,39.78
2023-04-22T05:38:30.203Z,40.23
2023-04-22T05:40:59.574Z,41.75
2023-04-22T05:43:29.052Z,41.60
2023-04-22T05:46:06.210Z,40.70
2023-04-22T05:48:37.000Z,41.50
2023-04-22T05:51:08.259Z,41.53
2023-04-22T05:53:37.834Z,42.10
2023-04-22T05:56:07.402Z,43.35
2023-04-22T05:58:37.731Z,43.20
2023-04-22T06:01:12.142Z,41.42
2023-04-22T06:03:43.616Z,41.90
2023-04-22T06:08:43.208Z,39.78
2023-04-22T06:11:13.099Z,39.83
2023-04-22T06:13:42.406Z,38.45
2023-04-22T06:16:13.559Z,39.00
2023-04-22T06:18:44.707Z,38.23
2023-04-22T06:21:14.436Z,39.73
2023-04-22T06:23:44.305Z,39.80
2023-04-22T06:26:14.163Z,39.75
2023-04-22T06:28:43.870Z,40.00
2023-04-22T06:31:15.233Z,38.80
2023-04-22T06:33:44.896Z,38.00
2023-04-22T06:36:14.928Z,37.13
2023-04-22T06:38:45.961Z,37.78
2023-04-22T06:41:26.412Z,38.05
2023-04-22T06:43:57.415Z,38.80
2023-04-22T06:46:46.772Z,37.08
2023-04-22T06:49:26.705Z,37.80
2023-04-22T06:52:00.911Z,36.35
2023-04-22T06:54:31.956Z,34.75
2023-04-22T06:57:01.608Z,33.98
2023-04-22T06:59:31.327Z,34.95
2023-04-22T07:02:01.358Z,33.20
2023-04-22T07:04:32.117Z,32.98
2023-04-22T07:07:01.892Z,31.95
2023-04-22T07:09:31.661Z,32.38
2023-04-22T07:12:01.458Z,32.80
2023-04-22T07:14:33.188Z,33.10
2023-04-22T07:17:02.567Z,33.33
2023-04-22T07:19:33.311Z,33.15
2023-04-22T07:22:03.673Z,31.05
2023-04-22T07:24:33.210Z,29.52
2023-04-22T07:27:03.196Z,28.50
2023-04-22T07:29:32.502Z,28.57
2023-04-22T07:32:02.038Z,27.73
2023-04-22T07:34:31.322Z,27.42
2023-04-22T07:37:00.728Z,25.90
2023-04-22T07:39:30.005Z,24.72
2023-04-22T07:41:59.555Z,21.37
2023-04-22T07:44:29.016Z,19.87
2023-04-22T07:46:58.965Z,19.98
2023-04-22T07:49:28.260Z,18.65
2023-04-22T07:51:58.197Z,18.25
2023-04-22T07:54:30.620Z,17.73
2023-04-22T07:57:00.068Z,17.42
2023-04-22T07:59:29.345Z,17.65
2023-04-22T08:01:58.664Z,16.62
2023-04-22T08:04:28.416Z,17.55
2023-04-22T08:06:58.374Z,16.57
2023-04-22T08:09:27.717Z,17.10
2023-04-22T08:11:58.644Z,16.85
2023-04-22T08:14:28.192Z,16.95
2023-04-22T08:16:57.636Z,16.73
2023-04-22T08:19:26.977Z,17.02
2023-04-22T08:21:58.047Z,16.15
2023-04-22T08:24:27.373Z,16.70
2023-04-22T08:26:59.767Z,16.42
2023-04-22T08:29:29.458Z,16.57
2023-04-22T08:31:58.724Z,15.90
2023-04-22T08:34:28.999Z,15.78
2023-04-22T08:36:58.655Z,15.25
2023-04-22T08:39:28.214Z,13.90
2023-04-22T08:41:58.296Z,12.75
2023-04-22T08:44:28.362Z,11.35
2023-04-22T08:46:57.892Z,12.10
2023-04-22T08:49:28.022Z,12.10
2023-04-22T08:51:57.420Z,12.07
2023-04-22T08:54:27.173Z,13.08
2023-04-22T08:56:56.841Z,12.25
2023-04-22T08:59:26.625Z,12.75
2023-04-22T09:01:56.875Z,12.65
2023-04-22T09:04:26.505Z,11.90
2023-04-22T09:06:56.248Z,12.30
2023-04-22T09:09:26.210Z,11.80
2023-04-22T09:11:55.902Z,12.15
2023-04-22T09:14:26.719Z,11.88
2023-04-22T09:16:57.786Z,12.03
2023-04-22T09:19:27.173Z,11.83
2023-04-22T09:22:01.111Z,13.48
2023-04-22T09:24:31.274Z,12.40
2023-04-22T09:27:03.505Z,12.30
2023-04-22T09:29:32.824Z,14.58
2023-04-22T09:32:02.290Z,15.38
2023-04-22T09:34:32.486Z,14.93
2023-04-22T09:37:01.745Z,14.23
2023-04-22T09:39:31.514Z,13.18
2023-04-22T09:42:01.612Z,11.00
2023-04-22T09:44:31.186Z,10.08
2023-04-22T09:47:00.582Z,9.18
2023-04-22T09:49:30.243Z,8.23
2023-04-22T09:51:59.630Z,9.00
2023-04-22T09:54:30.547Z,9.28
2023-04-22T09:56:59.843Z,8.78
2023-04-22T09:59:31.552Z,8.45
2023-04-22T10:02:04.309Z,8.08
2023-04-22T10:04:34.694Z,8.00
2023-04-22T10:07:04.021Z,7.72
2023-04-22T10:09:34.639Z,8.00
2023-04-22T10:12:03.989Z,8.90
2023-04-22T10:14:33.280Z,8.10
2023-04-22T10:17:04.103Z,8.65
2023-04-22T10:19:34.511Z,8.90
2023-04-22T10:22:05.211Z,8.75
2023-04-22T10:24:37.960Z,9.58
2023-04-22T10:27:08.367Z,9.83
2023-04-22T10:29:40.155Z,10.15
2023-04-22T10:32:22.110Z,10.28
2023-04-22T10:34:53.287Z,10.50
2023-04-22T10:37:22.744Z,10.48
2023-04-22T10:40:12.008Z,10.20
2023-04-22T10:42:42.707Z,10.35
2023-04-22T10:45:16.056Z,11.05
2023-04-22T10:47:46.433Z,10.60
2023-04-22T10:50:18.966Z,11.38
2023-04-22T10:55:18.589Z,11.43
2023-04-22T10:57:49.933Z,11.93
2023-04-22T11:00:41.759Z,13.80
2023-04-22T11:03:14.067Z,13.08
2023-04-22T11:05:44.297Z,14.25
2023-04-22T11:11:27.006Z,15.00
2023-04-22T11:13:56.892Z,15.70
2023-04-22T11:16:26.917Z,16.40
2023-04-22T11:18:57.702Z,17.30
2023-04-22T11:21:27.873Z,17.02
2023-04-22T11:24:05.199Z,17.98
2023-04-22T11:26:36.184Z,19.17
2023-04-22T11:29:06.245Z,21.55
2023-04-22T11:31:36.896Z,22.22
2023-04-22T11:34:06.356Z,22.25
2023-04-22T11:36:35.837Z,23.05
2023-04-22T11:39:08.628Z,23.32
2023-04-22T11:41:38.199Z,24.23
2023-04-22T11:44:07.516Z,23.83
2023-04-22T11:46:38.826Z,25.43
2023-04-22T11:49:18.711Z,24.67
2023-04-22T11:51:56.504Z,25.48
2023-04-22T11:54:33.108Z,26.17
2023-04-22T11:57:11.734Z,27.40
2023-04-22T11:59:41.322Z,27.62
2023-04-22T12:02:11.348Z,27.82
2023-04-22T12:04:41.937Z,27.27
2023-04-22T12:07:11.676Z,28.57
2023-04-22T12:09:41.624Z,30.02
2023-04-22T12:12:11.464Z,29.12
2023-04-22T12:14:41.094Z,29.92
2023-04-22T12:17:12.230Z,29.25
2023-04-22T12:19:42.067Z,29.02
2023-04-22T12:22:11.597Z,27.67
2023-04-22T12:24:44.186Z,27.00
2023-04-22T12:29:45.721Z,26.65
2023-04-22T12:32:14.979Z,27.13
2023-04-22T12:34:44.358Z,26.95
2023-04-22T12:37:13.972Z,27.40
2023-04-22T12:39:43.422Z,27.52
2023-04-22T12:42:12.866Z,27.17
2023-04-22T12:44:43.566Z,26.85
2023-04-22T12:47:12.980Z,27.22
2023-04-22T12:49:43.563Z,27.02
2023-04-22T12:52:13.336Z,26.40
2023-04-22T12:54:42.742Z,26.55
2023-04-22T12:57:12.154Z,25.00
2023-04-22T12:59:41.990Z,25.23
2023-04-22T13:02:11.530Z,26.30
2023-04-22T13:04:41.025Z,25.00
2023-04-22T13:07:11.026Z,25.97
2023-04-22T13:09:40.646Z,26.85
2023-04-22T13:12:10.217Z,28.77
2023-04-22T13:14:39.600Z,29.52
2023-04-22T13:17:08.867Z,30.20
2023-04-22T13:19:38.412Z,31.73
2023-04-22T13:22:07.762Z,31.75
2023-04-22T13:24:37.337Z,30.57
2023-04-22T13:27:07.648Z,31.75
2023-04-22T13:29:37.134Z,30.68
2023-04-22T13:32:06.984Z,31.97
2023-04-22T13:34:36.449Z,31.20
2023-04-22T13:37:06.232Z,30.95
2023-04-22T13:39:35.672Z,31.57
2023-04-22T13:42:05.664Z,31.42
2023-04-22T13:44:35.214Z,34.38
2023-04-22T13:47:04.572Z,33.15
2023-04-22T13:49:33.923Z,33.25
2023-04-22T13:52:03.330Z,35.08
2023-04-22T13:54:32.614Z,33.28
2023-04-22T13:57:03.473Z,34.30
2023-04-22T13:59:34.731Z,34.65
2023-04-22T14:02:04.077Z,34.83
2023-04-22T14:04:34.712Z,35.73
2023-04-22T14:07:04.258Z,36.48
2023-04-22T14:09:34.722Z,34.67
2023-04-22T14:12:05.043Z,35.70
2023-04-22T14:14:34.658Z,36.40
2023-04-22T14:17:03.997Z,35.88
2023-04-22T14:19:33.990Z,34.43
2023-04-22T14:22:03.286Z,35.45
2023-04-22T14:24:33.298Z,34.65
2023-04-22T14:27:02.604Z,33.15
2023-04-22T14:29:32.373Z,32.42
2023-04-22T14:32:02.199Z,32.13
2023-04-22T14:34:31.542Z,31.87
2023-04-22T14:37:00.960Z,31.60
2023-04-22T14:39:30.388Z,30.55
2023-04-22T14:41:59.877Z,29.12
2023-04-22T14:44:29.512Z,27.95
2023-04-22T14:46:58.872Z,29.05
2023-04-22T14:49:28.457Z,29.12
2023-04-22T14:51:59.399Z,27.73
2023-04-22T14:54:29.314Z,27.35
2023-04-22T14:56:58.929Z,27.37
2023-04-22T14:59:28.268Z,27.62
2023-04-22T15:01:57.901Z,26.05
2023-04-22T15:04:27.651Z,27.98
2023-04-22T15:06:57.877Z,28.80
2023-04-22T15:09:27.847Z,28.75
2023-04-22T15:11:59.138Z,27.98
2023-04-22T15:14:28.379Z,27.30
2023-04-22T15:16:57.763Z,27.70
2023-04-22T15:19:27.034Z,29.18
2023-04-22T15:21:56.329Z,28.50
2023-04-22T15:24:25.793Z,30.32
2023-04-22T15:26:56.728Z,31.33
2023-04-22T15:29:27.873Z,29.85
2023-04-22T15:31:57.933Z,27.40
2023-04-22T15:34:27.366Z,26.62
2023-04-22T15:36:56.772Z,27.67
2023-04-22T15:39:26.297Z,26.40
2023-04-22T15:41:55.721Z,24.77
2023-04-22T15:44:25.043Z,25.72
2023-04-22T15:46:54.464Z,26.45
2023-04-22T15:49:25.063Z,24.82
2023-04-22T15:51:54.917Z,26.68
2023-04-22T15:54:24.180Z,27.85
2023-04-22T15:56:53.811Z,27.45
2023-04-22T15:59:23.080Z,27.50
2023-04-22T16:01:52.748Z,27.35
2023-04-22T16:04:22.329Z,27.35
2023-04-22T16:06:51.903Z,26.45
2023-04-22T16:09:21.194Z,27.10
2023-04-22T16:11:51.164Z,27.90
2023-04-22T16:14:20.778Z,26.17
2023-04-22T16:16:50.307Z,26.57
2023-04-22T16:19:19.619Z,26.50
2023-04-22T16:21:49.101Z,27.77
2023-04-22T16:24:18.368Z,26.48
2023-04-22T16:26:47.746Z,26.17
2023-04-22T16:29:17.416Z,26.15
2023-04-22T16:31:47.126Z,25.92
2023-04-22T16:34:16.864Z,26.55
2023-04-22T16:36:46.484Z,26.52
2023-04-22T16:39:16.420Z,26.17
2023-04-22T16:41:45.941Z,26.15
2023-04-22T16:44:15.335Z,25.20
2023-04-22T16:46:45.031Z,23.83
2023-04-22T16:49:14.644Z,22.07
2023-04-22T16:51:43.940Z,21.15
2023-04-22T16:54:13.253Z,19.77
2023-04-22T16:56:42.852Z,19.23
2023-04-22T16:59:12.235Z,19.37
2023-04-22T17:01:44.540Z,19.65
2023-04-22T17:04:13.916Z,20.08
2023-04-22T17:06:44.423Z,20.08
2023-04-22T17:09:13.769Z,21.73
2023-04-22T17:11:43.171Z,22.22
2023-04-22T17:14:12.552Z,19.52
2023-04-22T17:16:41.878Z,20.20
2023-04-22T17:19:11.913Z,19.98
2023-04-22T17:21:41.267Z,20.43
2023-04-22T17:24:10.815Z,21.10
2023-04-22T17:26:40.564Z,20.88
2023-04-22T17:29:10.249Z,21.27
2023-04-22T17:31:40.304Z,20.85
2023-04-22T17:34:09.901Z,21.37
2023-04-22T17:36:39.173Z,23.70
2023-04-22T17:39:08.926Z,23.18
2023-04-22T17:41:38.250Z,25.72
2023-04-22T17:44:08.922Z,25.05
2023-04-22T17:46:38.388Z,25.88
2023-04-22T17:49:08.070Z,25.85
2023-04-22T17:51:37.794Z,25.48
2023-04-22T17:54:08.068Z,25.85
2023-04-22T17:56:37.787Z,26.75
2023-04-22T17:59:07.532Z,26.75
2023-04-22T18:01:38.829Z,26.82
2023-04-22T18:04:08.652Z,25.90
2023-04-22T18:06:38.411Z,27.20
2023-04-22T18:09:08.510Z,28.27
2023-04-22T18:11:37.769Z,29.23
2023-04-22T18:14:08.024Z,29.00
2023-04-22T18:16:37.954Z,29.57
2023-04-22T18:19:07.438Z,30.32
2023-04-22T18:21:39.726Z,31.00
2023-04-22T18:24:08.460Z,33.08
2023-04-22T18:26:37.782Z,33.98
2023-04-22T18:29:08.745Z,32.50
2023-04-22T18:31:38.238Z,31.20
2023-04-22T18:34:08.272Z,32.15
2023-04-22T18:36:38.064Z,32.03
2023-04-22T18:39:07.604Z,32.42
2023-04-22T18:41:39.096Z,33.83
2023-04-22T18:44:08.502Z,34.40
2023-04-22T18:46:37.983Z,34.45
2023-04-22T18:49:09.119Z,34.33
2023-04-22T18:51:42.234Z,33.88
2023-04-22T18:54:13.296Z,34.00
2023-04-22T18:56:42.865Z,34.53
2023-04-22T18:59:14.262Z,35.05
2023-04-22T19:01:44.054Z,35.23
2023-04-22T19:04:13.722Z,34.90
2023-04-22T19:06:43.402Z,35.52
2023-04-22T19:09:12.752Z,36.25
2023-04-22T19:11:42.282Z,35.78
2023-04-22T19:14:13.306Z,35.63
2023-04-22T19:16:43.069Z,36.80
2023-04-22T19:19:12.636Z,38.00
2023-04-22T19:21:42.056Z,38.83
2023-04-22T19:24:13.096Z,38.85
2023-04-22T19:26:42.802Z,38.15
2023-04-22T19:29:13.904Z,36.53
2023-04-22T19:31:44.935Z,38.90
2023-04-22T19:34:14.485Z,38.90
2023-04-22T19:36:44.250Z,38.67
2023-04-22T19:39:14.028Z,39.27
2023-04-22T19:41:43.583Z,38.90
2023-04-22T19:44:13.369Z,40.45
2023-04-22T19:46:42.954Z,40.05
2023-04-22T19:49:12.858Z,40.23
2023-04-22T19:51:43.884Z,42.33
2023-04-22T19:54:14.318Z,41.02
2023-04-22T19:56:45.976Z,43.38
2023-04-22T19:59:15.726Z,45.17
2023-04-22T20:01:46.630Z,45.45
2023-04-22T20:04:16.294Z,45.75
2023-04-22T20:06:47.353Z,46.73
2023-04-22T20:09:17.173Z,45.20
2023-04-22T20:11:48.828Z,45.85
2023-04-22T20:14:19.005Z,45.70
2023-04-22T20:16:50.122Z,44.93
2023-04-22T20:19:19.981Z,42.88
2023-04-22T20:21:50.201Z,40.85
2023-04-22T20:24:20.104Z,46.60
2023-04-22T20:26:50.271Z,44.75
2023-04-22T20:29:19.951Z,48.75
2023-04-22T20:31:52.188Z,47.98
2023-04-22T20:34:21.689Z,50.17
2023-04-22T20:36:55.020Z,49.93
2023-04-22T20:39:25.705Z,49.23
2023-04-22T20:41:59.668Z,48.90
2023-04-22T20:44:29.317Z,49.05
2023-04-22T20:46:58.971Z,49.88
2023-04-22T20:49:28.449Z,50.05
2023-04-22T20:51:58.055Z,51.05
2023-04-22T20:54:29.383Z,51.75
2023-04-22T20:57:00.658Z,50.23
2023-04-22T20:59:30.541Z,53.08
2023-04-22T21:02:03.760Z,52.33
2023-04-22T21:04:33.898Z,52.43
2023-04-22T21:07:07.572Z,52.98
2023-04-22T21:09:37.059Z,54.53
2023-04-22T21:12:08.218Z,56.13
2023-04-22T21:14:43.466Z,57.48
2023-04-22T21:17:25.470Z,56.92
2023-04-22T21:19:57.343Z,55.43
2023-04-22T21:22:27.384Z,57.23
2023-04-22T21:24:56.873Z,58.65
2023-04-22T21:27:28.515Z,59.18
2023-04-22T21:29:58.630Z,60.33
2023-04-22T21:32:29.566Z,62.05
2023-04-22T21:34:58.950Z,63.38
2023-04-22T21:37:28.357Z,63.17
2023-04-22T21:40:00.430Z,66.22
2023-04-22T21:42:29.826Z,67.20
2023-04-22T21:44:59.122Z,68.10
2023-04-22T21:47:28.705Z,67.53
2023-04-22T21:49:58.096Z,70.95
2023-04-22T21:52:27.756Z,71.47
2023-04-22T21:54:57.050Z,73.17
2023-04-22T21:57:26.437Z,70.62
2023-04-22T21:59:56.270Z,70.35
2023-04-22T22:02:26.706Z,67.47
2023-04-22T22:04:56.318Z,68.17
2023-04-22T22:07:26.856Z,69.00
2023-04-22T22:09:58.785Z,66.57
2023-04-22T22:12:28.097Z,69.65
2023-04-22T22:14:57.697Z,70.25
2023-04-22T22:17:27.793Z,69.77
2023-04-22T22:19:57.477Z,68.52
2023-04-22T22:22:26.852Z,69.07
2023-04-22T22:24:56.221Z,67.50
2023-04-22T22:27:26.372Z,66.67
2023-04-22T22:29:56.065Z,68.25
2023-04-22T22:32:25.435Z,68.50
2023-04-22T22:34:54.979Z,66.75
2023-04-22T22:37:24.625Z,65.70
2023-04-22T22:39:53.954Z,67.53
2023-04-22T22:42:23.284Z,65.72
2023-04-22T22:44:52.643Z,68.42
2023-04-22T22:47:21.878Z,65.42
2023-04-22T22:49:51.307Z,64.97
2023-04-22T22:52:20.704Z,65.35
2023-04-22T22:54:50.594Z,66.72
2023-04-22T22:57:19.879Z,66.25
2023-04-22T22:59:49.176Z,65.05
2023-04-22T23:02:18.881Z,65.35
2023-04-22T23:04:48.484Z,63.92
2023-04-22T23:07:17.867Z,64.92
2023-04-22T23:09:47.398Z,65.72
2023-04-22T23:12:16.738Z,63.33
2023-04-22T23:14:46.580Z,62.78
2023-04-22T23:17:17.398Z,61.20
2023-04-22T23:19:47.374Z,63.63
2023-04-22T23:22:17.022Z,63.95
2023-04-22T23:24:46.734Z,61.70
2023-04-22T23:27:17.388Z,62.30
2023-04-22T23:29:46.975Z,60.28
2023-04-22T23:32:16.835Z,60.70
2023-04-22T23:34:46.926Z,59.53
2023-04-22T23:37:16.452Z,60.78
2023-04-22T23:39:46.031Z,59.38
2023-04-22T23:42:15.327Z,60.90
2023-04-22T23:44:46.651Z,59.35
2023-04-22T23:47:15.969Z,60.03
2023-04-22T23:49:46.292Z,58.83
2023-04-22T23:52:15.677Z,58.75
2023-04-22T23:54:45.164Z,56.10
2023-04-22T23:57:14.870Z,58.38
2023-04-22T23:59:44.654Z,57.23
